createdAt,value
2018-05-18T00:00:47.249Z,22.10
2018-05-18T00:03:15.239Z,21.30
2018-05-18T00:05:43.180Z,20.70
2018-05-18T00:08:11.146Z,21.93
2018-05-18T00:10:39.077Z,20.93
2018-05-18T00:13:07.068Z,22.47
2018-05-18T00:15:35.016Z,24.10
2018-05-18T00:18:02.924Z,21.40
2018-05-18T00:20:30.854Z,22.97
2018-05-18T00:22:58.767Z,21.47
2018-05-18T00:25:26.703Z,23.50
2018-05-18T00:27:54.623Z,22.57
2018-05-18T00:30:22.567Z,22.60
2018-05-18T00:32:51.405Z,25.83
2018-05-18T00:35:19.332Z,24.10
2018-05-18T00:37:47.250Z,26.80
2018-05-18T00:40:15.174Z,25.30
2018-05-18T00:42:43.112Z,25.20
2018-05-18T00:45:11.141Z,24.73
2018-05-18T00:47:39.051Z,27.57
2018-05-18T00:50:06.984Z,27.03
2018-05-18T00:52:34.892Z,26.80
2018-05-18T00:55:02.845Z,27.87
2018-05-18T00:57:31.649Z,28.43
2018-05-18T00:59:59.571Z,26.83
2018-05-18T01:02:27.513Z,27.67
2018-05-18T01:04:55.433Z,27.57
2018-05-18T01:07:23.366Z,27.53
2018-05-18T01:09:51.292Z,27.17
2018-05-18T01:12:19.225Z,25.83
2018-05-18T01:14:47.146Z,24.20
2018-05-18T01:17:15.093Z,25.97
2018-05-18T01:19:43.014Z,28.63
2018-05-18T01:22:10.953Z,27.73
2018-05-18T01:24:38.848Z,28.10
2018-05-18T01:27:06.776Z,29.37
2018-05-18T01:29:34.693Z,27.87
2018-05-18T01:32:02.640Z,28.20
2018-05-18T01:34:30.609Z,28.40
2018-05-18T01:36:58.864Z,29.57
2018-05-18T01:39:27.198Z,29.13
2018-05-18T01:41:55.114Z,29.03
2018-05-18T01:44:23.055Z,27.47
2018-05-18T01:46:50.982Z,26.80
2018-05-18T01:49:18.916Z,26.63
2018-05-18T01:51:47.533Z,28.30
2018-05-18T01:54:15.465Z,28.47
2018-05-18T01:56:43.379Z,26.87
2018-05-18T01:59:11.348Z,26.73
2018-05-18T02:01:39.284Z,25.57
2018-05-18T02:04:07.210Z,24.43
2018-05-18T02:06:35.132Z,25.70
2018-05-18T02:09:03.065Z,26.20
2018-05-18T02:11:30.988Z,25.23
2018-05-18T02:13:58.915Z,25.70
2018-05-18T02:16:26.841Z,24.83
2018-05-18T02:18:54.772Z,26.60
2018-05-18T02:21:22.688Z,23.10
2018-05-18T02:23:50.656Z,25.30
2018-05-18T02:26:18.727Z,25.07
2018-05-18T02:28:47.461Z,25.80
2018-05-18T02:31:15.381Z,24.53
2018-05-18T02:33:43.304Z,25.37
2018-05-18T02:36:11.225Z,24.67
2018-05-18T02:38:39.519Z,24.70
2018-05-18T02:41:07.424Z,27.23
2018-05-18T02:43:35.361Z,24.90
2018-05-18T02:46:03.288Z,22.73
2018-05-18T02:48:31.895Z,26.00
2018-05-18T02:50:59.879Z,25.57
2018-05-18T02:53:27.805Z,26.50
2018-05-18T02:55:55.752Z,22.33
2018-05-18T02:58:23.709Z,24.43
2018-05-18T03:00:51.662Z,23.20
2018-05-18T03:03:19.608Z,22.33
2018-05-18T03:05:47.551Z,22.10
2018-05-18T03:08:16.379Z,22.27
2018-05-18T03:10:44.287Z,21.77
2018-05-18T03:13:12.283Z,20.00
2018-05-18T03:15:40.212Z,19.80
2018-05-18T03:18:08.131Z,20.03
2018-05-18T03:20:36.104Z,23.20
2018-05-18T03:23:04.068Z,20.67
2018-05-18T03:25:32.005Z,18.93
2018-05-18T03:27:59.932Z,18.80
2018-05-18T03:30:27.888Z,18.47
2018-05-18T03:32:55.793Z,19.73
2018-05-18T03:35:23.720Z,18.03
2018-05-18T03:37:51.649Z,18.60
2018-05-18T03:40:19.581Z,18.77
2018-05-18T03:42:47.525Z,18.13
2018-05-18T03:45:15.447Z,17.40
2018-05-18T03:47:43.376Z,17.10
2018-05-18T03:50:11.287Z,17.70
2018-05-18T03:52:39.234Z,16.00
2018-05-18T03:55:08.084Z,16.90
2018-05-18T03:57:36.019Z,15.23
2018-05-18T04:00:03.936Z,16.50
2018-05-18T04:02:44.125Z,15.10
2018-05-18T04:05:23.804Z,17.37
2018-05-18T04:08:03.623Z,16.03
2018-05-18T04:10:31.658Z,16.57
2018-05-18T04:12:59.573Z,14.80
2018-05-18T04:15:27.491Z,15.80
2018-05-18T04:17:55.429Z,17.00
2018-05-18T04:20:23.366Z,16.17
2018-05-18T04:22:51.288Z,14.97
2018-05-18T04:25:19.241Z,15.73
2018-05-18T04:27:47.162Z,16.10
2018-05-18T04:30:15.124Z,15.40
2018-05-18T04:32:43.031Z,16.20
2018-05-18T04:35:10.969Z,15.03
2018-05-18T04:37:38.883Z,17.67
2018-05-18T04:40:06.849Z,14.70
2018-05-18T04:42:34.770Z,16.43
2018-05-18T04:45:02.697Z,14.40
2018-05-18T04:47:30.618Z,16.30
2018-05-18T04:49:58.552Z,15.90
2018-05-18T04:52:26.475Z,15.33
2018-05-18T04:54:54.424Z,16.40
2018-05-18T04:57:22.317Z,16.07
2018-05-18T04:59:50.254Z,16.87
2018-05-18T05:02:18.177Z,16.33
2018-05-18T05:04:46.090Z,16.83
2018-05-18T05:07:14.009Z,15.23
2018-05-18T05:09:41.943Z,15.27
2018-05-18T05:12:09.853Z,16.60
2018-05-18T05:14:37.791Z,17.17
2018-05-18T05:17:05.731Z,16.13
2018-05-18T05:19:33.672Z,15.97
2018-05-18T05:22:01.628Z,14.87
2018-05-18T05:24:29.560Z,17.47
2018-05-18T05:26:57.531Z,16.40
2018-05-18T05:29:25.444Z,16.33
2018-05-18T05:31:53.363Z,16.43
2018-05-18T05:34:21.283Z,15.87
2018-05-18T05:36:49.211Z,15.37
2018-05-18T05:39:17.170Z,15.97
2018-05-18T05:41:45.078Z,15.60
2018-05-18T05:44:13.005Z,16.93
2018-05-18T05:46:40.924Z,16.47
2018-05-18T05:49:08.879Z,16.53
2018-05-18T05:51:36.791Z,18.93
2018-05-18T05:54:04.784Z,16.80
2018-05-18T05:56:32.671Z,16.30
2018-05-18T05:59:00.628Z,17.90
2018-05-18T06:01:28.525Z,16.73
2018-05-18T06:03:56.461Z,16.80
2018-05-18T06:06:24.498Z,19.23
2018-05-18T06:08:52.616Z,17.67
2018-05-18T06:11:20.540Z,17.10
2018-05-18T06:13:48.452Z,17.73
2018-05-18T06:16:16.405Z,16.20
2018-05-18T06:18:44.421Z,17.00
2018-05-18T06:21:12.352Z,17.13
2018-05-18T06:23:40.869Z,17.17
2018-05-18T06:26:08.796Z,16.97
2018-05-18T06:28:36.707Z,18.27
2018-05-18T06:31:04.655Z,17.97
2018-05-18T06:33:32.583Z,17.27
2018-05-18T06:36:00.525Z,17.33
2018-05-18T06:38:28.447Z,17.30
2018-05-18T06:40:56.391Z,16.40
2018-05-18T06:43:24.311Z,17.07
2018-05-18T06:45:52.247Z,17.13
2018-05-18T06:48:20.183Z,17.07
2018-05-18T06:50:48.185Z,16.13
2018-05-18T06:53:16.095Z,17.67
2018-05-18T06:55:44.038Z,17.33
2018-05-18T06:58:11.989Z,19.60
2018-05-18T07:00:39.912Z,18.70
2018-05-18T07:03:07.839Z,19.13
2018-05-18T07:05:35.756Z,19.17
2018-05-18T07:08:03.680Z,19.87
2018-05-18T07:10:31.694Z,19.70
2018-05-18T07:12:59.539Z,18.73
2018-05-18T07:15:27.463Z,18.30
2018-05-18T07:17:55.379Z,20.00
2018-05-18T07:20:23.348Z,17.63
2018-05-18T07:22:51.276Z,18.10
2018-05-18T07:25:19.200Z,18.20
2018-05-18T07:27:47.151Z,17.70
2018-05-18T07:30:15.059Z,17.83
2018-05-18T07:32:43.013Z,17.10
2018-05-18T07:35:10.929Z,17.40
2018-05-18T07:37:40.129Z,20.03
2018-05-18T07:40:08.031Z,16.50
2018-05-18T07:42:35.975Z,19.60
2018-05-18T07:45:03.916Z,19.97
2018-05-18T07:47:31.838Z,18.17
2018-05-18T07:49:59.777Z,17.60
2018-05-18T07:52:27.718Z,18.80
2018-05-18T07:54:55.703Z,18.83
2018-05-18T07:57:23.660Z,17.63
2018-05-18T07:59:51.596Z,18.03
2018-05-18T08:02:19.514Z,18.20
2018-05-18T08:04:47.436Z,18.50
2018-05-18T08:07:15.362Z,17.70
2018-05-18T08:09:43.317Z,17.30
2018-05-18T08:12:11.246Z,16.90
2018-05-18T08:14:39.169Z,18.00
2018-05-18T08:17:07.110Z,16.60
2018-05-18T08:19:35.043Z,16.47
2018-05-18T08:22:02.952Z,14.57
2018-05-18T08:24:30.902Z,16.83
2018-05-18T08:27:10.581Z,15.90
2018-05-18T08:29:38.550Z,15.00
2018-05-18T08:32:06.440Z,15.00
2018-05-18T08:34:34.364Z,15.90
2018-05-18T08:37:02.283Z,16.00
2018-05-18T08:39:30.215Z,15.07
2018-05-18T08:41:58.133Z,15.70
2018-05-18T08:44:26.264Z,15.73
2018-05-18T08:46:54.097Z,15.37
2018-05-18T08:49:22.031Z,16.60
2018-05-18T08:51:49.957Z,15.80
2018-05-18T08:54:17.882Z,15.90
2018-05-18T08:56:45.793Z,14.50
2018-05-18T08:59:13.746Z,17.80
2018-05-18T09:01:41.694Z,16.67
2018-05-18T09:04:09.623Z,18.67
2018-05-18T09:06:37.567Z,16.90
2018-05-18T09:09:06.161Z,16.27
2018-05-18T09:11:40.005Z,17.43
2018-05-18T09:14:07.925Z,18.33
2018-05-18T09:16:36.906Z,17.13
2018-05-18T09:19:04.841Z,18.03
2018-05-18T09:21:32.754Z,18.30
2018-05-18T09:24:00.706Z,17.27
2018-05-18T09:26:28.751Z,17.87
2018-05-18T09:28:56.616Z,15.67
2018-05-18T09:31:24.531Z,17.73
2018-05-18T09:33:52.466Z,16.53
2018-05-18T09:36:20.929Z,15.17
2018-05-18T09:38:48.869Z,16.93
2018-05-18T09:41:16.818Z,16.80
2018-05-18T09:43:44.734Z,16.80
2018-05-18T09:46:12.653Z,16.33
2018-05-18T09:48:40.623Z,16.80
2018-05-18T09:51:08.560Z,16.37
2018-05-18T09:53:36.510Z,15.97
2018-05-18T09:56:04.461Z,16.93
2018-05-18T09:58:32.384Z,16.07
2018-05-18T10:01:00.302Z,17.27
2018-05-18T10:03:28.217Z,16.10
2018-05-18T10:05:56.559Z,15.67
2018-05-18T10:08:24.467Z,15.10
2018-05-18T10:10:52.411Z,15.33
2018-05-18T10:13:20.320Z,15.17
2018-05-18T10:15:48.244Z,15.27
2018-05-18T10:18:16.161Z,15.90
2018-05-18T10:20:44.162Z,16.37
2018-05-18T10:23:12.063Z,16.20
2018-05-18T10:25:39.998Z,15.37
2018-05-18T10:28:08.218Z,18.10
2018-05-18T10:30:36.132Z,15.60
2018-05-18T10:33:04.070Z,16.23
2018-05-18T10:35:31.992Z,16.13
2018-05-18T10:38:01.111Z,16.33
2018-05-18T10:40:29.718Z,16.13
2018-05-18T10:42:57.677Z,18.27
2018-05-18T10:45:25.616Z,17.43
2018-05-18T10:47:53.557Z,16.90
2018-05-18T10:50:21.493Z,16.77
2018-05-18T10:52:49.419Z,22.77
2018-05-18T10:55:17.342Z,20.37
2018-05-18T10:57:45.263Z,18.70
2018-05-18T11:00:13.181Z,17.60
2018-05-18T11:02:41.098Z,18.23
2018-05-18T11:05:09.019Z,18.03
2018-05-18T11:07:36.953Z,18.43
2018-05-18T11:10:04.883Z,17.67
2018-05-18T11:12:32.792Z,17.20
2018-05-18T11:15:00.713Z,17.60
2018-05-18T11:17:28.640Z,18.00
2018-05-18T11:19:56.660Z,18.00
2018-05-18T11:22:24.526Z,17.23
2018-05-18T11:24:52.424Z,19.10
2018-05-18T11:27:20.349Z,19.53
2018-05-18T11:29:48.395Z,18.83
2018-05-18T11:32:16.300Z,19.00
2018-05-18T11:34:44.220Z,18.47
2018-05-18T11:37:12.180Z,19.30
2018-05-18T11:39:40.135Z,19.10
2018-05-18T11:42:08.046Z,17.80
2018-05-18T11:44:36.043Z,17.30
2018-05-18T11:47:04.008Z,17.90
2018-05-18T11:49:31.912Z,16.77
2018-05-18T11:51:59.935Z,16.80
2018-05-18T11:54:27.846Z,17.03
2018-05-18T11:56:55.788Z,18.27
2018-05-18T11:59:23.743Z,17.23
2018-05-18T12:01:51.672Z,15.90
2018-05-18T12:04:19.600Z,18.00
2018-05-18T12:06:47.529Z,17.70
2018-05-18T12:09:15.477Z,17.07
2018-05-18T12:11:43.400Z,18.50
2018-05-18T12:14:11.378Z,17.77
2018-05-18T12:16:39.325Z,17.93
2018-05-18T12:19:07.263Z,17.60
2018-05-18T12:21:35.203Z,19.10
2018-05-18T12:24:03.141Z,18.40
2018-05-18T12:26:31.016Z,19.17
2018-05-18T12:28:58.950Z,18.17
2018-05-18T12:31:26.874Z,19.17
2018-05-18T12:33:54.802Z,17.90
2018-05-18T12:36:22.724Z,19.03
2018-05-18T12:38:50.789Z,19.40
2018-05-18T12:41:18.732Z,17.40
2018-05-18T12:43:46.682Z,19.73
2018-05-18T12:46:14.627Z,19.53
2018-05-18T12:48:42.521Z,18.87
2018-05-18T12:51:10.505Z,18.80
2018-05-18T12:53:38.403Z,19.10
2018-05-18T12:56:06.323Z,18.20
2018-05-18T12:58:34.248Z,19.60
2018-05-18T13:01:02.215Z,18.90
2018-05-18T13:03:30.149Z,17.53
2018-05-18T13:05:58.042Z,19.03
2018-05-18T13:08:25.969Z,17.97
2018-05-18T13:10:53.887Z,17.70
2018-05-18T13:13:21.810Z,18.07
2018-05-18T13:15:49.806Z,18.40
2018-05-18T13:18:17.663Z,17.73
2018-05-18T13:20:45.592Z,18.37
2018-05-18T13:23:13.495Z,18.43
2018-05-18T13:25:41.419Z,18.97
2018-05-18T13:28:09.557Z,16.93
2018-05-18T13:30:37.545Z,17.90
2018-05-18T13:33:05.510Z,18.23
2018-05-18T13:35:33.422Z,17.70
2018-05-18T13:38:01.372Z,19.07
2018-05-18T13:40:29.458Z,18.73
2018-05-18T13:42:57.366Z,17.10
2018-05-18T13:45:25.467Z,17.90
2018-05-18T13:47:53.383Z,16.90
2018-05-18T13:50:21.395Z,17.70
2018-05-18T13:52:49.306Z,16.50
2018-05-18T13:55:17.219Z,16.60
2018-05-18T13:57:45.250Z,14.63
2018-05-18T14:00:13.158Z,16.60
2018-05-18T14:02:41.136Z,16.93
2018-05-18T14:05:09.011Z,15.70
2018-05-18T14:07:36.957Z,17.93
2018-05-18T14:10:04.933Z,16.23
2018-05-18T14:12:32.940Z,18.00
2018-05-18T14:15:00.869Z,17.57
2018-05-18T14:17:28.788Z,15.23
2018-05-18T14:19:56.703Z,15.60
2018-05-18T14:22:24.631Z,13.17
2018-05-18T14:24:53.346Z,12.20
2018-05-18T14:27:21.257Z,11.43
2018-05-18T14:29:49.213Z,11.67
2018-05-18T14:32:17.132Z,12.73
2018-05-18T14:34:45.061Z,13.70
2018-05-18T14:37:13.092Z,13.80
2018-05-18T14:39:41.013Z,13.77
2018-05-18T14:42:08.948Z,11.93
2018-05-18T14:44:36.863Z,12.80
2018-05-18T14:47:04.776Z,13.40
2018-05-18T14:49:32.707Z,12.80
2018-05-18T14:52:00.627Z,14.27
2018-05-18T14:54:28.557Z,12.33
2018-05-18T14:56:56.478Z,13.83
2018-05-18T14:59:24.396Z,12.87
2018-05-18T15:01:52.308Z,14.53
2018-05-18T15:04:20.248Z,12.23
2018-05-18T15:06:48.189Z,13.33
2018-05-18T15:09:16.143Z,14.40
2018-05-18T15:11:44.142Z,12.90
2018-05-18T15:14:12.086Z,14.97
2018-05-18T15:16:40.048Z,14.53
2018-05-18T15:19:07.954Z,15.03
2018-05-18T15:21:35.890Z,14.27
2018-05-18T15:24:03.820Z,15.13
2018-05-18T15:26:31.834Z,13.60
2018-05-18T15:28:59.757Z,12.63
2018-05-18T15:31:27.701Z,12.73
2018-05-18T15:33:55.669Z,13.40
2018-05-18T15:36:23.662Z,13.50
2018-05-18T15:38:51.573Z,14.10
2018-05-18T15:41:19.508Z,13.00
2018-05-18T15:43:47.437Z,12.13
2018-05-18T15:46:15.331Z,11.77
2018-05-18T15:48:43.259Z,13.60
2018-05-18T15:51:11.173Z,13.60
2018-05-18T15:53:39.111Z,13.17
2018-05-18T15:56:07.047Z,12.40
2018-05-18T15:58:34.968Z,11.73
2018-05-18T16:01:02.897Z,13.13
2018-05-18T16:03:30.963Z,13.67
2018-05-18T16:05:58.883Z,14.30
2018-05-18T16:08:26.819Z,12.80
2018-05-18T16:10:54.827Z,12.50
2018-05-18T16:13:22.745Z,12.53
2018-05-18T16:15:50.701Z,13.13
2018-05-18T16:18:18.671Z,13.20
2018-05-18T16:20:46.618Z,11.70
2018-05-18T16:23:14.580Z,11.63
2018-05-18T16:25:42.496Z,12.37
2018-05-18T16:28:10.439Z,12.80
2018-05-18T16:30:38.397Z,11.50
2018-05-18T16:33:06.303Z,11.33
2018-05-18T16:35:34.212Z,12.70
2018-05-18T16:38:02.155Z,12.13
2018-05-18T16:40:30.114Z,11.90
2018-05-18T16:42:58.041Z,10.87
2018-05-18T16:45:25.980Z,11.00
2018-05-18T16:47:53.893Z,11.00
2018-05-18T16:50:21.821Z,10.27
2018-05-18T16:52:49.792Z,10.13
2018-05-18T16:55:17.680Z,11.47
2018-05-18T16:57:45.619Z,9.77
2018-05-18T17:00:13.502Z,10.80
2018-05-18T17:02:42.003Z,9.77
2018-05-18T17:05:09.974Z,11.10
2018-05-18T17:07:37.908Z,11.07
2018-05-18T17:10:05.914Z,10.80
2018-05-18T17:12:33.964Z,9.00
2018-05-18T17:15:01.759Z,9.70
2018-05-18T17:17:29.677Z,10.30
2018-05-18T17:19:57.590Z,10.50
2018-05-18T17:22:25.508Z,10.60
2018-05-18T17:24:53.437Z,10.33
2018-05-18T17:27:21.350Z,9.90
2018-05-18T17:29:49.260Z,10.07
2018-05-18T17:32:17.191Z,10.17
2018-05-18T17:34:45.123Z,10.20
2018-05-18T17:37:13.073Z,9.70
2018-05-18T17:39:40.972Z,10.07
2018-05-18T17:42:08.953Z,10.13
2018-05-18T17:44:36.827Z,10.97
2018-05-18T17:47:05.026Z,11.80
2018-05-18T17:49:32.919Z,10.53
2018-05-18T17:52:00.855Z,12.83
2018-05-18T17:54:28.769Z,10.80
2018-05-18T17:56:56.793Z,11.17
2018-05-18T17:59:24.684Z,12.43
2018-05-18T18:01:52.618Z,10.73
2018-05-18T18:04:20.529Z,11.87
2018-05-18T18:06:48.441Z,11.90
2018-05-18T18:09:16.385Z,12.03
2018-05-18T18:11:44.305Z,11.13
2018-05-18T18:14:12.273Z,11.60
2018-05-18T18:16:40.124Z,12.00
2018-05-18T18:19:08.096Z,11.20
2018-05-18T18:21:36.017Z,13.60
2018-05-18T18:24:03.931Z,11.93
2018-05-18T18:26:31.854Z,11.87
2018-05-18T18:28:59.781Z,11.97
2018-05-18T18:31:27.675Z,13.47
2018-05-18T18:33:55.613Z,12.87
2018-05-18T18:36:23.548Z,13.70
2018-05-18T18:38:52.235Z,12.87
2018-05-18T18:41:20.128Z,12.30
2018-05-18T18:43:48.040Z,12.30
2018-05-18T18:46:15.972Z,11.40
2018-05-18T18:48:43.893Z,10.90
2018-05-18T18:51:11.811Z,12.60
2018-05-18T18:53:39.791Z,12.63
2018-05-18T18:56:07.717Z,11.50
2018-05-18T18:58:35.677Z,13.73
2018-05-18T19:01:03.638Z,13.37
2018-05-18T19:03:31.534Z,13.27
2018-05-18T19:05:59.444Z,12.40
2018-05-18T19:08:27.993Z,11.80
2018-05-18T19:10:55.933Z,13.37
2018-05-18T19:13:24.859Z,11.47
2018-05-18T19:15:52.794Z,12.33
2018-05-18T19:18:20.776Z,13.13
2018-05-18T19:20:48.697Z,11.90
2018-05-18T19:23:17.471Z,11.63
2018-05-18T19:25:45.569Z,11.87
2018-05-18T19:28:13.548Z,11.73
2018-05-18T19:30:41.530Z,12.23
2018-05-18T19:33:09.491Z,12.47
2018-05-18T19:35:37.483Z,11.50
2018-05-18T19:38:05.396Z,11.17
2018-05-18T19:40:33.319Z,10.50
2018-05-18T19:43:01.239Z,13.00
2018-05-18T19:45:29.172Z,12.03
2018-05-18T19:47:57.131Z,15.20
2018-05-18T19:50:25.071Z,12.47
2018-05-18T19:52:52.971Z,11.70
2018-05-18T19:55:20.915Z,11.87
2018-05-18T19:57:48.820Z,11.57
2018-05-18T20:00:16.748Z,10.40
2018-05-18T20:02:44.668Z,11.57
2018-05-18T20:05:12.590Z,12.03
2018-05-18T20:07:40.504Z,11.57
2018-05-18T20:10:08.424Z,10.80
2018-05-18T20:12:36.447Z,11.40
2018-05-18T20:15:04.344Z,12.20
2018-05-18T20:17:32.265Z,11.83
2018-05-18T20:20:00.175Z,10.23
2018-05-18T20:22:28.177Z,13.07
2018-05-18T20:24:56.140Z,12.50
2018-05-18T20:27:24.004Z,12.67
2018-05-18T20:29:51.923Z,11.73
2018-05-18T20:32:19.838Z,11.97
2018-05-18T20:34:47.786Z,13.03
2018-05-18T20:37:15.680Z,12.77
2018-05-18T20:39:43.607Z,12.57
2018-05-18T20:42:11.521Z,12.80
2018-05-18T20:44:39.463Z,13.70
2018-05-18T20:47:07.388Z,14.37
2018-05-18T20:49:35.313Z,12.60
2018-05-18T20:52:03.228Z,13.67
2018-05-18T20:54:31.166Z,13.87
2018-05-18T20:56:59.131Z,14.30
2018-05-18T20:59:27.054Z,13.60
2018-05-18T21:01:54.972Z,13.40
2018-05-18T21:04:22.905Z,13.00
2018-05-18T21:06:50.833Z,12.43
2018-05-18T21:09:18.754Z,13.03
2018-05-18T21:11:46.714Z,11.80
2018-05-18T21:14:14.624Z,13.13
2018-05-18T21:16:42.559Z,11.50
2018-05-18T21:19:10.851Z,13.67
2018-05-18T21:21:39.347Z,12.40
2018-05-18T21:24:07.392Z,12.83
2018-05-18T21:26:35.350Z,13.27
2018-05-18T21:29:03.245Z,13.90
2018-05-18T21:31:31.168Z,14.40
2018-05-18T21:33:59.080Z,13.63
2018-05-18T21:36:27.037Z,15.90
2018-05-18T21:38:54.951Z,12.50
2018-05-18T21:41:22.863Z,13.17
2018-05-18T21:43:50.795Z,12.57
2018-05-18T21:46:18.731Z,13.50
2018-05-18T21:48:47.397Z,12.43
2018-05-18T21:51:15.321Z,13.70
2018-05-18T21:53:43.232Z,11.53
2018-05-18T21:56:11.162Z,13.60
2018-05-18T21:58:39.172Z,12.00
2018-05-18T22:01:07.028Z,12.30
2018-05-18T22:03:34.973Z,11.83
2018-05-18T22:06:02.892Z,11.07
2018-05-18T22:08:31.523Z,11.63
2018-05-18T22:10:59.440Z,11.90
2018-05-18T22:13:27.357Z,11.40
2018-05-18T22:15:55.282Z,12.60
2018-05-18T22:18:23.188Z,14.40
2018-05-18T22:20:51.985Z,13.00
2018-05-18T22:23:19.990Z,12.60
2018-05-18T22:25:48.027Z,11.40
2018-05-18T22:28:15.952Z,11.83
2018-05-18T22:30:43.862Z,12.47
2018-05-18T22:33:11.791Z,12.40
2018-05-18T22:35:39.709Z,15.20
2018-05-18T22:38:07.656Z,14.50
2018-05-18T22:40:35.571Z,19.67
2018-05-18T22:43:03.528Z,24.10
2018-05-18T22:45:31.445Z,29.27
2018-05-18T22:47:59.368Z,17.07
2018-05-18T22:50:27.321Z,20.00
2018-05-18T22:52:55.233Z,13.80
2018-05-18T22:55:23.164Z,13.30
2018-05-18T22:57:51.091Z,12.83
2018-05-18T23:00:26.421Z,13.57
2018-05-18T23:02:54.423Z,14.50
2018-05-18T23:05:22.349Z,16.20
2018-05-18T23:07:50.264Z,13.17
2018-05-18T23:10:18.225Z,14.57
2018-05-18T23:12:46.155Z,13.47
2018-05-18T23:15:14.126Z,13.77
2018-05-18T23:17:42.046Z,13.70
2018-05-18T23:20:09.998Z,14.23
2018-05-18T23:22:37.933Z,14.73
2018-05-18T23:25:05.867Z,13.30
2018-05-18T23:27:33.776Z,13.47
2018-05-18T23:30:01.697Z,14.07
2018-05-18T23:32:29.639Z,13.87
2018-05-18T23:34:57.573Z,14.73
2018-05-18T23:37:25.503Z,14.63
2018-05-18T23:39:53.467Z,16.73
2018-05-18T23:42:21.380Z,14.67
2018-05-18T23:44:50.158Z,14.87
2018-05-18T23:47:18.070Z,14.50
2018-05-18T23:49:46.017Z,14.50
2018-05-18T23:52:14.126Z,15.53
2018-05-18T23:54:42.056Z,16.03
2018-05-18T23:57:10.029Z,14.73
2018-05-18T23:59:37.953Z,14.60
